Time;durP1;ratioP1;P1;durP2;ratioP2;P2;SDS_P1;SDS_P2;PMS_P1;PMS_P2;Temp;Humidity;BMP_temperature;BMP_pressure;BME280_temperature;BME280_humidity;BME280_pressure;Samples;Min_cycle;Max_cycle;Signal;HPM_P1;HPM_P2
2023/08/01 00:01:01;;;;;;;;;9.00;6.00;;;;;28.01;53.27;100320.94;146621;638;46012;-77
2023/08/01 00:03:56;;;;;;;;;8.00;6.67;;;;;28.00;52.83;100303.19;146622;627;46020;-79
2023/08/01 00:06:48;;;;;;;;;6.00;6.00;;;;;27.96;53.07;100306.88;146621;604;46012;-79
2023/08/01 00:09:42;;;;;;;;;10.00;7.67;;;;;27.92;52.81;100307.87;146622;626;46010;-76
2023/08/01 00:12:44;;;;;;;;;11.33;10.67;;;;;27.89;52.81;100309.75;146617;611;47012;-78
2023/08/01 00:16:06;;;;;;;;;7.00;7.00;;;;;27.83;52.43;100303.66;146623;572;46020;-85
2023/08/01 00:19:14;;;;;;;;;9.00;7.00;;;;;27.77;52.75;100301.16;146621;569;46016;-81
2023/08/01 00:22:25;;;;;;;;;6.67;6.67;;;;;27.19;52.34;100198.78;146622;642;46020;-78
2023/08/01 00:25:27;;;;;;;;;8.67;8.67;;;;;27.82;52.54;100298.34;146622;584;46016;-79
2023/08/01 00:28:34;;;;;;;;;7.67;7.67;;;;;27.84;52.49;100308.06;146625;585;46010;-80
2023/08/01 00:31:42;;;;;;;;;7.00;7.00;;;;;27.80;52.66;100310.84;146620;581;45913;-82
2023/08/01 00:34:47;;;;;;;;;8.00;8.00;;;;;27.72;52.74;100310.12;146624;569;45020;-82
2023/08/01 00:38:07;;;;;;;;;9.67;7.67;;;;;27.56;52.54;100310.53;146621;630;46016;-78
2023/08/01 00:41:07;;;;;;;;;8.67;8.00;;;;;27.56;52.69;100309.66;146622;609;46010;-83
2023/08/01 00:44:05;;;;;;;;;8.00;7.33;;;;;27.55;53.01;100314.13;146619;636;46012;-82
2023/08/01 00:47:38;;;;;;;;;8.00;8.00;;;;;27.48;52.81;100317.00;146622;590;46021;-81
2023/08/01 00:50:40;;;;;;;;;6.67;6.33;;;;;27.39;53.03;100315.41;146623;565;46012;-82
2023/08/01 00:53:54;;;;;;;;;7.33;7.33;;;;;27.10;52.92;100284.13;146625;592;46021;-85
2023/08/01 00:56:57;;;;;;;;;10.00;8.00;;;;;27.23;52.95;100322.00;146621;609;45913;-80
2023/08/01 00:59:49;;;;;;;;;8.00;8.00;;;;;27.22;52.66;100330.91;146624;637;45021;-80
2023/08/01 01:02:56;;;;;;;;;;;;;;;;;;;;;
2023/08/01 01:06:18;;;;;;;;;7.67;7.00;;;;;27.32;52.93;100325.34;146624;615;46020;-86
2023/08/01 01:09:29;;;;;;;;;7.33;7.00;;;;;27.42;52.48;100322.47;146621;690;45016;-81
2023/08/01 01:12:28;;;;;;;;;8.00;7.00;;;;;27.50;52.41;100320.47;146625;609;46010;-83
2023/08/01 01:15:30;;;;;;;;;8.00;8.00;;;;;27.56;51.76;100312.31;146620;610;46013;-81
2023/08/01 01:18:55;;;;;;;;;;;;;;;;;;;;;
2023/08/01 01:21:56;;;;;;;;;7.33;7.33;;;;;27.64;51.95;100324.53;146620;631;46017;-90
2023/08/01 01:24:59;;;;;;;;;10.00;9.67;;;;;27.67;51.46;100323.59;146625;565;46014;-82
2023/08/01 01:28:05;;;;;;;;;9.33;7.00;;;;;27.69;51.40;100323.53;146619;668;46041;-88
2023/08/01 01:31:06;;;;;;;;;9.67;8.33;;;;;27.70;51.02;100314.66;146621;597;46021;-91
2023/08/01 01:34:06;;;;;;;;;9.00;7.33;;;;;27.68;50.78;100313.81;146619;569;46913;-82
2023/08/01 01:37:09;;;;;;;;;7.00;7.00;;;;;27.58;50.70;100311.37;146622;622;46014;-81
2023/08/01 01:40:15;;;;;;;;;8.00;8.00;;;;;27.51;50.96;100311.56;146620;613;46014;-78
2023/08/01 01:43:12;;;;;;;;;9.67;9.00;;;;;27.47;51.27;100310.75;146624;589;46020;-77
2023/08/01 01:46:17;;;;;;;;;9.67;9.33;;;;;27.45;51.37;100309.06;146620;585;46016;-79
2023/08/01 01:49:14;;;;;;;;;8.67;8.67;;;;;27.36;51.30;100303.06;146624;588;45020;-78
2023/08/01 01:52:22;;;;;;;;;6.00;6.00;;;;;27.27;52.07;100297.94;146618;574;46016;-81
2023/08/01 01:55:18;;;;;;;;;9.00;8.33;;;;;27.20;52.52;100304.34;146625;632;46020;-78
2023/08/01 01:58:18;;;;;;;;;9.33;8.00;;;;;27.16;52.48;100305.31;146622;569;46012;-77
2023/08/01 02:01:17;;;;;;;;;9.33;9.33;;;;;27.14;52.92;100307.16;146623;590;46021;-78
2023/08/01 02:04:21;;;;;;;;;9.33;8.67;;;;;27.14;52.53;100312.47;146621;565;46016;-79
2023/08/01 02:07:35;;;;;;;;;9.00;8.00;;;;;27.15;52.52;100303.56;146623;590;46020;-77
2023/08/01 02:10:30;;;;;;;;;9.67;7.00;;;;;27.15;51.94;100304.44;146621;606;46012;-77
2023/08/01 02:13:45;;;;;;;;;;;;;;;;;;;;;
2023/08/01 02:16:53;;;;;;;;;7.00;7.00;;;;;27.16;51.88;100310.63;146618;609;46016;-77
2023/08/01 02:19:58;;;;;;;;;8.00;7.67;;;;;27.16;51.68;100322.16;146624;609;46010;-75
2023/08/01 02:23:04;;;;;;;;;;;;;;;;;;;;;
2023/08/01 02:26:00;;;;;;;;;8.67;7.33;;;;;27.21;51.43;100321.19;146625;604;46020;-83
2023/08/01 02:29:00;;;;;;;;;10.33;10.33;;;;;27.21;51.55;100322.06;146622;612;46012;-84
2023/08/01 02:32:01;;;;;;;;;8.33;8.33;;;;;27.16;52.22;100326.59;146622;571;46020;-81
2023/08/01 02:34:56;;;;;;;;;10.33;10.00;;;;;27.14;52.34;100321.31;146620;681;45912;-79
2023/08/01 02:37:57;;;;;;;;;7.67;7.67;;;;;27.15;52.30;100325.72;146624;598;46014;-81
2023/08/01 02:41:02;;;;;;;;;9.00;7.67;;;;;27.05;52.18;100315.31;146620;574;46016;-81
2023/08/01 02:44:16;;;;;;;;;10.33;8.67;;;;;26.99;51.35;100308.34;146625;574;45021;-81
2023/08/01 02:47:15;;;;;;;;;8.00;8.00;;;;;27.03;51.35;100330.44;146622;621;46014;-81
2023/08/01 02:50:21;;;;;;;;;10.33;10.33;;;;;26.95;51.24;100326.16;146622;622;46015;-81
2023/08/01 02:53:41;;;;;;;;;8.00;8.00;;;;;26.79;51.42;100307.91;146620;577;46913;-80
2023/08/01 02:56:57;;;;;;;;;9.00;9.00;;;;;26.87;51.50;100327.25;146625;576;46010;-82
2023/08/01 02:59:56;;;;;;;;;8.33;8.33;;;;;26.80;51.82;100322.97;146620;564;46911;-79
2023/08/01 03:03:10;;;;;;;;;9.67;9.33;;;;;26.75;51.79;100327.50;146624;622;46014;-85
2023/08/01 03:06:14;;;;;;;;;9.00;8.00;;;;;26.70;52.15;100322.31;146621;628;46014;-83
2023/08/01 03:09:29;;;;;;;;;;;;;;;;;;;;;
2023/08/01 03:12:53;;;;;;;;;10.00;9.33;;;;;25.30;51.92;100106.34;146621;570;46012;-78
2023/08/01 03:15:57;;;;;;;;;9.33;9.33;;;;;26.59;51.97;100330.47;146623;608;45031;-79
2023/08/01 03:18:52;;;;;;;;;9.00;8.00;;;;;26.59;52.61;100340.25;146620;577;46014;-80
2023/08/01 03:21:55;;;;;;;;;10.00;9.67;;;;;26.56;52.77;100340.31;146625;575;45026;-83
2023/08/01 03:24:50;;;;;;;;;9.00;9.00;;;;;26.56;52.32;100338.53;146619;596;46016;-81
2023/08/01 03:27:45;;;;;;;;;9.33;9.00;;;;;26.58;52.36;100343.81;146618;573;46919;-77
2023/08/01 03:31:05;;;;;;;;;11.67;9.67;;;;;26.59;51.91;100341.13;146621;632;46014;-77
2023/08/01 03:34:02;;;;;;;;;9.67;8.67;;;;;26.63;51.98;100340.12;146619;608;45021;-81
2023/08/01 03:37:13;;;;;;;;;8.00;8.00;;;;;25.88;51.49;100221.16;146622;588;46014;-77
2023/08/01 03:40:20;;;;;;;;;9.00;8.00;;;;;26.58;51.85;100341.16;146624;576;46010;-82
2023/08/01 03:43:23;;;;;;;;;9.67;8.33;;;;;26.56;51.96;100340.31;146622;611;45913;-78
2023/08/01 03:46:18;;;;;;;;;10.00;8.67;;;;;26.59;51.78;100345.56;146623;652;46020;-82
2023/08/01 03:49:42;;;;;;;;;10.67;10.00;;;;;26.62;52.06;100351.69;146619;621;46016;-81
2023/08/01 03:52:47;;;;;;;;;12.00;11.00;;;;;26.69;52.64;100348.00;146621;620;47020;-83
2023/08/01 03:55:49;;;;;;;;;8.00;8.00;;;;;26.79;52.12;100346.03;146622;673;46012;-83
2023/08/01 03:58:52;;;;;;;;;9.00;9.00;;;;;26.92;51.94;100352.84;146620;570;46033;-81
2023/08/01 04:01:54;;;;;;;;;10.67;8.67;;;;;27.02;51.56;100353.50;146618;577;46012;-82
2023/08/01 04:04:52;;;;;;;;;8.00;8.00;;;;;27.11;51.80;100361.28;146618;572;46020;-81
2023/08/01 04:07:54;;;;;;;;;7.67;7.67;;;;;27.18;51.75;100356.72;146620;594;46012;-80
2023/08/01 04:10:53;;;;;;;;;11.67;10.00;;;;;27.28;51.56;100362.72;146623;574;46010;-80
2023/08/01 04:13:54;;;;;;;;;11.00;11.00;;;;;27.32;51.24;100365.28;146632;694;47012;-77
2023/08/01 04:16:55;;;;;;;;;9.00;6.67;;;;;27.35;51.33;100358.97;146637;671;45020;-79
2023/08/01 04:19:53;;;;;;;;;9.00;9.00;;;;;27.34;50.84;100363.44;146631;621;45033;-79
2023/08/01 04:22:47;;;;;;;;;10.00;10.00;;;;;27.29;51.41;100364.44;146635;574;45020;-78
2023/08/01 04:25:53;;;;;;;;;11.75;11.25;;;;;27.18;51.85;100370.03;146630;569;45016;-81
2023/08/01 04:28:54;;;;;;;;;8.00;8.00;;;;;27.14;52.15;100365.69;146635;645;45029;-81
2023/08/01 04:31:56;;;;;;;;;9.67;8.33;;;;;27.14;52.58;100371.03;146634;584;46014;-81
2023/08/01 04:35:10;;;;;;;;;9.00;9.00;;;;;27.21;52.05;100371.75;146636;564;45021;-80
2023/08/01 04:38:16;;;;;;;;;10.25;8.75;;;;;27.23;52.39;100378.81;146631;565;45030;-79
2023/08/01 04:41:09;;;;;;;;;9.33;8.33;;;;;27.25;52.12;100370.75;146637;589;45021;-80
2023/08/01 04:44:05;;;;;;;;;10.75;8.75;;;;;27.31;52.34;100378.59;146634;671;45016;-75
2023/08/01 04:47:09;;;;;;;;;10.00;8.00;;;;;27.43;52.49;100386.31;146639;574;45010;-80
2023/08/01 04:50:06;;;;;;;;;10.67;10.00;;;;;27.59;52.79;100392.16;146636;620;45016;-77
2023/08/01 04:53:07;;;;;;;;;8.00;8.00;;;;;27.79;52.36;100392.59;146637;662;45020;-76
2023/08/01 04:56:06;;;;;;;;;15.00;13.00;;;;;27.98;51.92;100389.44;146633;578;45028;-78
2023/08/01 04:59:07;;;;;;;;;8.67;8.67;;;;;28.19;51.77;100395.97;146637;627;45010;-78
2023/08/01 05:02:14;;;;;;;;;11.00;10.00;;;;;28.32;50.98;100389.44;146631;656;45035;-76
2023/08/01 05:05:20;;;;;;;;;7.00;7.00;;;;;28.62;50.63;100401.06;146637;597;45021;-79
2023/08/01 05:08:26;;;;;;;;;9.67;9.00;;;;;27.65;49.46;100189.56;146634;575;45016;-75
2023/08/01 05:11:31;;;;;;;;;10.00;9.00;;;;;29.06;49.15;100398.03;146635;570;45020;-76
2023/08/01 05:14:31;;;;;;;;;11.00;11.00;;;;;29.28;48.99;100393.78;146620;606;46016;-76
2023/08/01 05:17:37;;;;;;;;;8.33;8.33;;;;;29.45;48.38;100396.81;146620;602;46020;-77
